sensor_id;sensor_type;location;lat;lon;timestamp;pressure;altitude;pressure_sealevel;temperature;humidity
48614;BME280;34408;51.426;5.444;2023-12-04T00:01:49;101229.91;;;5.47;59.63
48614;BME280;34408;51.426;5.444;2023-12-04T00:04:17;101223.38;;;5.50;59.46
48614;BME280;34408;51.426;5.444;2023-12-04T00:06:45;101227.88;;;5.49;59.59
48614;BME280;34408;51.426;5.444;2023-12-04T00:09:14;101229.91;;;5.47;59.79
48614;BME280;34408;51.426;5.444;2023-12-04T00:11:42;101224.56;;;5.47;59.88
48614;BME280;34408;51.426;5.444;2023-12-04T00:14:10;101210.59;;;5.45;59.73
48614;BME280;34408;51.426;5.444;2023-12-04T00:16:38;101215.56;;;5.48;59.60
48614;BME280;34408;51.426;5.444;2023-12-04T00:19:06;101215.75;;;5.47;59.69
48614;BME280;34408;51.426;5.444;2023-12-04T00:21:34;101207.91;;;5.45;59.56
48614;BME280;34408;51.426;5.444;2023-12-04T00:24:02;101210.41;;;5.47;59.85
48614;BME280;34408;51.426;5.444;2023-12-04T00:26:32;101204.25;;;5.46;59.75
48614;BME280;34408;51.426;5.444;2023-12-04T00:28:59;101205.25;;;5.45;59.89
48614;BME280;34408;51.426;5.444;2023-12-04T00:31:27;101202.78;;;5.44;59.85
48614;BME280;34408;51.426;5.444;2023-12-04T00:33:55;101203.59;;;5.44;59.55
48614;BME280;34408;51.426;5.444;2023-12-04T00:36:23;101199.09;;;5.45;59.67
48614;BME280;34408;51.426;5.444;2023-12-04T00:38:51;101193.78;;;5.45;59.94
48614;BME280;34408;51.426;5.444;2023-12-04T00:41:19;101200.28;;;5.42;60.04
48614;BME280;34408;51.426;5.444;2023-12-04T00:43:48;101190.81;;;5.40;59.78
48614;BME280;34408;51.426;5.444;2023-12-04T00:46:15;101191.63;;;5.40;59.90
48614;BME280;34408;51.426;5.444;2023-12-04T00:48:43;101182.53;;;5.35;59.61
48614;BME280;34408;51.426;5.444;2023-12-04T00:51:12;101186.50;;;5.39;59.78
48614;BME280;34408;51.426;5.444;2023-12-04T00:53:40;101181.16;;;5.39;60.11
48614;BME280;34408;51.426;5.444;2023-12-04T00:56:09;101177.66;;;5.38;59.97
48614;BME280;34408;51.426;5.444;2023-12-04T00:58:37;101176.00;;;5.37;60.01
48614;BME280;34408;51.426;5.444;2023-12-04T01:01:07;101166.53;;;5.35;60.04
48614;BME280;34408;51.426;5.444;2023-12-04T01:03:35;101163.03;;;5.34;60.00
48614;BME280;34408;51.426;5.444;2023-12-04T01:06:03;101159.72;;;5.32;59.88
48614;BME280;34408;51.426;5.444;2023-12-04T01:08:31;101158.72;;;5.33;60.07
48614;BME280;34408;51.426;5.444;2023-12-04T01:10:59;101161.22;;;5.35;60.05
48614;BME280;34408;51.426;5.444;2023-12-04T01:13:27;101157.06;;;5.32;59.91
48614;BME280;34408;51.426;5.444;2023-12-04T01:15:55;101164.22;;;5.32;59.97
48614;BME280;34408;51.426;5.444;2023-12-04T01:18:24;101162.56;;;5.31;60.17
48614;BME280;34408;51.426;5.444;2023-12-04T01:20:52;101157.25;;;5.31;60.01
48614;BME280;34408;51.426;5.444;2023-12-04T01:23:20;101155.78;;;5.28;60.33
48614;BME280;34408;51.426;5.444;2023-12-04T01:25:47;101152.09;;;5.29;60.08
48614;BME280;34408;51.426;5.444;2023-12-04T01:28:15;101145.09;;;5.28;60.16
48614;BME280;34408;51.426;5.444;2023-12-04T01:30:43;101151.25;;;5.29;60.01
48614;BME280;34408;51.426;5.444;2023-12-04T01:33:11;101144.28;;;5.28;60.29
48614;BME280;34408;51.426;5.444;2023-12-04T01:35:40;101142.63;;;5.27;60.17
48614;BME280;34408;51.426;5.444;2023-12-04T01:38:08;101134.63;;;5.27;60.22
48614;BME280;34408;51.426;5.444;2023-12-04T01:40:36;101134.16;;;5.23;60.37
48614;BME280;34408;51.426;5.444;2023-12-04T01:43:04;101131.31;;;5.24;60.25
48614;BME280;34408;51.426;5.444;2023-12-04T01:45:32;101129.47;;;5.25;60.20
48614;BME280;34408;51.426;5.444;2023-12-04T01:48:00;101127.00;;;5.23;60.21
48614;BME280;34408;51.426;5.444;2023-12-04T01:50:28;101130.31;;;5.26;60.29
48614;BME280;34408;51.426;5.444;2023-12-04T01:52:57;101124.34;;;5.23;60.37
48614;BME280;34408;51.426;5.444;2023-12-04T01:55:25;101118.19;;;5.23;60.33
48614;BME280;34408;51.426;5.444;2023-12-04T01:57:53;101110.34;;;5.21;60.24
48614;BME280;34408;51.426;5.444;2023-12-04T02:00:22;101108.53;;;5.22;60.41
48614;BME280;34408;51.426;5.444;2023-12-04T02:02:50;101103.59;;;5.19;60.47
48614;BME280;34408;51.426;5.444;2023-12-04T02:05:19;101105.03;;;5.21;60.24
48614;BME280;34408;51.426;5.444;2023-12-04T02:07:48;101096.22;;;5.21;60.09
48614;BME280;34408;51.426;5.444;2023-12-04T02:10:17;101085.75;;;5.19;60.44
48614;BME280;34408;51.426;5.444;2023-12-04T02:12:45;101095.38;;;5.20;60.44
48614;BME280;34408;51.426;5.444;2023-12-04T02:15:13;101087.59;;;5.19;60.52
48614;BME280;34408;51.426;5.444;2023-12-04T02:17:42;101084.72;;;5.20;60.37
48614;BME280;34408;51.426;5.444;2023-12-04T02:20:12;101089.25;;;5.20;60.50
48614;BME280;34408;51.426;5.444;2023-12-04T02:22:40;101081.25;;;5.20;60.32
48614;BME280;34408;51.426;5.444;2023-12-04T02:25:10;101090.28;;;5.19;59.97
48614;BME280;34408;51.426;5.444;2023-12-04T02:27:46;101084.13;;;5.18;60.44
48614;BME280;34408;51.426;5.444;2023-12-04T02:30:17;101083.09;;;5.19;60.43
48614;BME280;34408;51.426;5.444;2023-12-04T02:32:47;101083.28;;;5.18;60.12
48614;BME280;34408;51.426;5.444;2023-12-04T02:35:19;101080.78;;;5.16;60.36
48614;BME280;34408;51.426;5.444;2023-12-04T02:37:48;101072.63;;;5.18;60.34
48614;BME280;34408;51.426;5.444;2023-12-04T02:40:18;101078.97;;;5.17;60.20
48614;BME280;34408;51.426;5.444;2023-12-04T02:42:46;101064.00;;;5.16;60.42
48614;BME280;34408;51.426;5.444;2023-12-04T02:45:13;101059.84;;;5.13;60.51
48614;BME280;34408;51.426;5.444;2023-12-04T02:47:41;101059.03;;;5.13;60.14
48614;BME280;34408;51.426;5.444;2023-12-04T02:50:09;101055.34;;;5.14;60.30
48614;BME280;34408;51.426;5.444;2023-12-04T02:52:37;101053.34;;;5.16;60.11
48614;BME280;34408;51.426;5.444;2023-12-04T02:55:05;101042.66;;;5.16;60.48
48614;BME280;34408;51.426;5.444;2023-12-04T02:57:35;101049.00;;;5.15;60.19
48614;BME280;34408;51.426;5.444;2023-12-04T03:00:03;101044.50;;;5.15;60.22
48614;BME280;34408;51.426;5.444;2023-12-04T03:02:31;101039.19;;;5.15;60.26
48614;BME280;34408;51.426;5.444;2023-12-04T03:04:59;101039.19;;;5.15;60.54
48614;BME280;34408;51.426;5.444;2023-12-04T03:07:27;101036.53;;;5.15;60.38
48614;BME280;34408;51.426;5.444;2023-12-04T03:09:56;101026.88;;;5.14;60.50
48614;BME280;34408;51.426;5.444;2023-12-04T03:12:24;101029.72;;;5.13;60.01
48614;BME280;34408;51.426;5.444;2023-12-04T03:14:53;101020.91;;;5.12;60.15
48614;BME280;34408;51.426;5.444;2023-12-04T03:17:21;101018.41;;;5.11;60.16
48614;BME280;34408;51.426;5.444;2023-12-04T03:19:49;101013.91;;;5.11;60.60
48614;BME280;34408;51.426;5.444;2023-12-04T03:22:17;101009.59;;;5.10;60.75
48614;BME280;34408;51.426;5.444;2023-12-04T03:24:45;100999.78;;;5.11;60.38
48614;BME280;34408;51.426;5.444;2023-12-04T03:27:13;100996.28;;;5.10;60.45
48614;BME280;34408;51.426;5.444;2023-12-04T03:29:41;100990.94;;;5.10;60.41
48614;BME280;34408;51.426;5.444;2023-12-04T03:32:10;100993.44;;;5.12;60.06
48614;BME280;34408;51.426;5.444;2023-12-04T03:34:37;100983.59;;;5.12;60.20
48614;BME280;34408;51.426;5.444;2023-12-04T03:37:05;100983.78;;;5.11;60.07
48614;BME280;34408;51.426;5.444;2023-12-04T03:39:33;100974.13;;;5.10;60.12
48614;BME280;34408;51.426;5.444;2023-12-04T03:42:01;100973.50;;;5.08;60.62
48614;BME280;34408;51.426;5.444;2023-12-04T03:44:29;100973.31;;;5.09;60.43
48614;BME280;34408;51.426;5.444;2023-12-04T03:46:57;100969.63;;;5.10;60.02
48614;BME280;34408;51.426;5.444;2023-12-04T03:49:26;100972.31;;;5.10;60.29
48614;BME280;34408;51.426;5.444;2023-12-04T03:51:54;100971.47;;;5.10;60.33
48614;BME280;34408;51.426;5.444;2023-12-04T03:54:22;100960.63;;;5.11;59.96
48614;BME280;34408;51.426;5.444;2023-12-04T03:56:50;100965.31;;;5.09;59.94
48614;BME280;34408;51.426;5.444;2023-12-04T03:59:18;100960.81;;;5.10;59.97
48614;BME280;34408;51.426;5.444;2023-12-04T04:01:46;100955.31;;;5.11;60.24
48614;BME280;34408;51.426;5.444;2023-12-04T04:04:14;100956.78;;;5.14;60.31
48614;BME280;34408;51.426;5.444;2023-12-04T04:06:43;100948.97;;;5.12;60.09
48614;BME280;34408;51.426;5.444;2023-12-04T04:09:11;100945.66;;;5.10;60.31
48614;BME280;34408;51.426;5.444;2023-12-04T04:11:39;100936.03;;;5.09;60.34
48614;BME280;34408;51.426;5.444;2023-12-04T04:14:07;100937.50;;;5.12;60.26
48614;BME280;34408;51.426;5.444;2023-12-04T04:16:35;100930.50;;;5.11;60.22
48614;BME280;34408;51.426;5.444;2023-12-04T04:19:02;100925.81;;;5.13;59.85
48614;BME280;34408;51.426;5.444;2023-12-04T04:21:31;100928.66;;;5.11;60.11
48614;BME280;34408;51.426;5.444;2023-12-04T04:24:00;100924.34;;;5.10;59.86
48614;BME280;34408;51.426;5.444;2023-12-04T04:26:28;100922.69;;;5.09;59.86
48614;BME280;34408;51.426;5.444;2023-12-04T04:28:55;100921.69;;;5.10;59.96
48614;BME280;34408;51.426;5.444;2023-12-04T04:31:23;100924.34;;;5.10;60.27
48614;BME280;34408;51.426;5.444;2023-12-04T04:33:51;100913.69;;;5.10;60.41
48614;BME280;34408;51.426;5.444;2023-12-04T04:36:19;100903.03;;;5.10;60.30
48614;BME280;34408;51.426;5.444;2023-12-04T04:38:47;100910.22;;;5.10;60.18
48614;BME280;34408;51.426;5.444;2023-12-04T04:41:16;100902.22;;;5.10;59.96
48614;BME280;34408;51.426;5.444;2023-12-04T04:43:44;100911.03;;;5.10;60.37
48614;BME280;34408;51.426;5.444;2023-12-04T04:46:12;100890.72;;;5.09;60.08
48614;BME280;34408;51.426;5.444;2023-12-04T04:48:40;100889.91;;;5.09;60.35
48614;BME280;34408;51.426;5.444;2023-12-04T04:51:08;100880.44;;;5.06;60.57
48614;BME280;34408;51.426;5.444;2023-12-04T04:53:35;100884.75;;;5.07;60.22
48614;BME280;34408;51.426;5.444;2023-12-04T04:56:04;100876.03;;;4.99;59.93
48614;BME280;34408;51.426;5.444;2023-12-04T04:58:33;100885.59;;;5.08;59.99
48614;BME280;34408;51.426;5.444;2023-12-04T05:01:01;100889.38;;;4.99;60.04
48614;BME280;34408;51.426;5.444;2023-12-04T05:03:29;100896.25;;;5.08;59.95
48614;BME280;34408;51.426;5.444;2023-12-04T05:05:57;100906.06;;;5.07;60.22
48614;BME280;34408;51.426;5.444;2023-12-04T05:08:25;100904.41;;;5.06;60.42
48614;BME280;34408;51.426;5.444;2023-12-04T05:10:53;100900.94;;;5.06;60.14
48614;BME280;34408;51.426;5.444;2023-12-04T05:13:21;100900.09;;;5.05;60.17
48614;BME280;34408;51.426;5.444;2023-12-04T05:15:50;100891.47;;;5.03;59.93
48614;BME280;34408;51.426;5.444;2023-12-04T05:18:18;100881.66;;;5.04;60.22
48614;BME280;34408;51.426;5.444;2023-12-04T05:20:45;100889.44;;;5.05;60.01
48614;BME280;34408;51.426;5.444;2023-12-04T05:23:13;100872.00;;;5.03;60.39
48614;BME280;34408;51.426;5.444;2023-12-04T05:25:41;100868.50;;;5.02;60.45
48614;BME280;34408;51.426;5.444;2023-12-04T05:28:16;100858.88;;;5.01;60.08
48614;BME280;34408;51.426;5.444;2023-12-04T05:30:44;100864.19;;;5.01;60.34
48614;BME280;34408;51.426;5.444;2023-12-04T05:33:13;100857.03;;;5.02;60.42
48614;BME280;34408;51.426;5.444;2023-12-04T05:35:41;100843.91;;;5.00;59.92
48614;BME280;34408;51.426;5.444;2023-12-04T05:38:08;100849.22;;;5.00;60.54
48614;BME280;34408;51.426;5.444;2023-12-04T05:40:36;100843.91;;;5.00;59.91
48614;BME280;34408;51.426;5.444;2023-12-04T05:43:04;100822.88;;;4.90;60.57
48614;BME280;34408;51.426;5.444;2023-12-04T05:45:32;100839.59;;;4.99;60.32
48614;BME280;34408;51.426;5.444;2023-12-04T05:48:00;100840.97;;;4.95;60.26
48614;BME280;34408;51.426;5.444;2023-12-04T05:50:29;100848.59;;;4.98;60.50
48614;BME280;34408;51.426;5.444;2023-12-04T05:52:56;100840.59;;;4.98;60.16
48614;BME280;34408;51.426;5.444;2023-12-04T05:55:25;100840.78;;;4.97;60.08
48614;BME280;34408;51.426;5.444;2023-12-04T05:57:53;100841.78;;;4.96;60.33
48614;BME280;34408;51.426;5.444;2023-12-04T06:00:21;100832.59;;;4.98;60.53
48614;BME280;34408;51.426;5.444;2023-12-04T06:02:53;100830.78;;;4.99;60.60
48614;BME280;34408;51.426;5.444;2023-12-04T06:05:21;100834.25;;;4.99;60.15
48614;BME280;34408;51.426;5.444;2023-12-04T06:07:51;100820.13;;;4.99;60.12
48614;BME280;34408;51.426;5.444;2023-12-04T06:10:19;100817.44;;;4.99;60.50
48614;BME280;34408;51.426;5.444;2023-12-04T06:12:46;100816.00;;;4.96;60.57
48614;BME280;34408;51.426;5.444;2023-12-04T06:15:14;100810.66;;;4.96;60.39
48614;BME280;34408;51.426;5.444;2023-12-04T06:17:42;100809.66;;;4.97;60.52
48614;BME280;34408;51.426;5.444;2023-12-04T06:20:11;100801.19;;;5.08;59.61
48614;BME280;34408;51.426;5.444;2023-12-04T06:22:39;100801.38;;;5.28;59.25
48614;BME280;34408;51.426;5.444;2023-12-04T06:25:10;100783.31;;;5.45;58.57
48614;BME280;34408;51.426;5.444;2023-12-04T06:27:38;100784.91;;;5.61;58.52
48614;BME280;34408;51.426;5.444;2023-12-04T06:30:07;100773.53;;;5.73;57.68
48614;BME280;34408;51.426;5.444;2023-12-04T06:32:35;100769.41;;;5.92;57.14
48614;BME280;34408;51.426;5.444;2023-12-04T06:35:04;100763.16;;;6.06;56.81
48614;BME280;34408;51.426;5.444;2023-12-04T06:37:32;100763.25;;;6.19;56.50
48614;BME280;34408;51.426;5.444;2023-12-04T06:40:01;100754.69;;;6.31;56.24
48614;BME280;34408;51.426;5.444;2023-12-04T06:42:31;100752.56;;;6.19;56.10
48614;BME280;34408;51.426;5.444;2023-12-04T06:44:59;100732.13;;;5.99;56.28
48614;BME280;34408;51.426;5.444;2023-12-04T06:47:28;100741.53;;;5.95;56.60
48614;BME280;34408;51.426;5.444;2023-12-04T06:49:57;100734.84;;;5.84;56.99
48614;BME280;34408;51.426;5.444;2023-12-04T06:52:25;100737.84;;;5.74;57.51
48614;BME280;34408;51.426;5.444;2023-12-04T06:54:53;100747.63;;;5.67;57.70
48614;BME280;34408;51.426;5.444;2023-12-04T06:57:20;100757.41;;;5.60;58.08
48614;BME280;34408;51.426;5.444;2023-12-04T06:59:50;100742.38;;;5.52;58.20
48614;BME280;34408;51.426;5.444;2023-12-04T07:02:17;100750.13;;;5.47;58.19
48614;BME280;34408;51.426;5.444;2023-12-04T07:04:45;100750.06;;;5.41;58.30
48614;BME280;34408;51.426;5.444;2023-12-04T07:07:14;100750.25;;;5.39;58.48
48614;BME280;34408;51.426;5.444;2023-12-04T07:09:42;100747.59;;;5.39;58.48
48614;BME280;34408;51.426;5.444;2023-12-04T07:12:10;100744.47;;;5.36;58.54
48614;BME280;34408;51.426;5.444;2023-12-04T07:14:38;100744.84;;;5.33;59.05
48614;BME280;34408;51.426;5.444;2023-12-04T07:17:07;100741.56;;;5.31;58.87
48614;BME280;34408;51.426;5.444;2023-12-04T07:19:35;100731.22;;;5.21;59.10
48614;BME280;34408;51.426;5.444;2023-12-04T07:22:03;100743.78;;;5.27;58.85
48614;BME280;34408;51.426;5.444;2023-12-04T07:24:31;100748.28;;;5.27;58.67
48614;BME280;34408;51.426;5.444;2023-12-04T07:26:59;100746.63;;;5.26;58.50
48614;BME280;34408;51.426;5.444;2023-12-04T07:29:27;100734.50;;;5.23;59.12
48614;BME280;34408;51.426;5.444;2023-12-04T07:31:55;100749.03;;;5.20;59.38
48614;BME280;34408;51.426;5.444;2023-12-04T07:34:24;100744.53;;;5.21;58.90
48614;BME280;34408;51.426;5.444;2023-12-04T07:36:53;100757.03;;;5.20;59.32
48614;BME280;34408;51.426;5.444;2023-12-04T07:39:21;100757.25;;;5.19;58.87
48614;BME280;34408;51.426;5.444;2023-12-04T07:41:48;100755.78;;;5.16;59.14
48614;BME280;34408;51.426;5.444;2023-12-04T07:44:16;100753.75;;;5.18;58.84
48614;BME280;34408;51.426;5.444;2023-12-04T07:46:44;100745.13;;;5.16;58.79
48614;BME280;34408;51.426;5.444;2023-12-04T07:49:13;100745.31;;;5.15;59.41
48614;BME280;34408;51.426;5.444;2023-12-04T07:51:42;100748.81;;;5.15;58.81
48614;BME280;34408;51.426;5.444;2023-12-04T07:54:10;100734.66;;;5.15;58.73
48614;BME280;34408;51.426;5.444;2023-12-04T07:56:38;100733.00;;;5.14;59.07
48614;BME280;34408;51.426;5.444;2023-12-04T07:59:06;100737.69;;;5.12;58.90
48614;BME280;34408;51.426;5.444;2023-12-04T08:01:34;100728.69;;;5.13;59.22
48614;BME280;34408;51.426;5.444;2023-12-04T08:04:02;100731.38;;;5.13;58.89
48614;BME280;34408;51.426;5.444;2023-12-04T08:06:30;100726.03;;;5.13;58.99
48614;BME280;34408;51.426;5.444;2023-12-04T08:08:59;100725.41;;;5.11;58.64
48614;BME280;34408;51.426;5.444;2023-12-04T08:11:27;100716.38;;;5.12;58.66
48614;BME280;34408;51.426;5.444;2023-12-04T08:13:55;100716.38;;;5.12;59.05
48614;BME280;34408;51.426;5.444;2023-12-04T08:16:23;100724.38;;;5.12;58.70
48614;BME280;34408;51.426;5.444;2023-12-04T08:18:51;100716.38;;;5.12;58.32
48614;BME280;34408;51.426;5.444;2023-12-04T08:21:19;100718.22;;;5.11;58.51
48614;BME280;34408;51.426;5.444;2023-12-04T08:23:47;100712.06;;;5.11;58.65
48614;BME280;34408;51.426;5.444;2023-12-04T08:26:22;100703.47;;;5.09;59.33
48614;BME280;34408;51.426;5.444;2023-12-04T08:28:50;100704.47;;;5.08;58.45
48614;BME280;34408;51.426;5.444;2023-12-04T08:31:18;100699.72;;;5.03;58.75
48614;BME280;34408;51.426;5.444;2023-12-04T08:33:46;100700.34;;;5.05;58.90
48614;BME280;34408;51.426;5.444;2023-12-04T08:36:14;100696.66;;;5.06;58.82
48614;BME280;34408;51.426;5.444;2023-12-04T08:38:43;100691.34;;;5.06;58.63
48614;BME280;34408;51.426;5.444;2023-12-04T08:41:11;100691.16;;;5.08;58.75
48614;BME280;34408;51.426;5.444;2023-12-04T08:43:40;100666.47;;;4.99;58.42
48614;BME280;34408;51.426;5.444;2023-12-04T08:46:12;100673.44;;;5.21;58.68
48614;BME280;34408;51.426;5.444;2023-12-04T08:48:41;100671.31;;;5.38;57.66
48614;BME280;34408;51.426;5.444;2023-12-04T08:51:15;100660.53;;;5.46;55.07
48614;BME280;34408;51.426;5.444;2023-12-04T08:53:43;100652.44;;;5.61;55.25
48614;BME280;34408;51.426;5.444;2023-12-04T08:56:10;100652.56;;;5.81;55.21
48614;BME280;34408;51.426;5.444;2023-12-04T08:58:46;100651.88;;;6.00;54.94
48614;BME280;34408;51.426;5.444;2023-12-04T09:01:16;100652.19;;;6.18;54.31
48614;BME280;34408;51.426;5.444;2023-12-04T09:03:44;100662.34;;;6.36;53.86
48614;BME280;34408;51.426;5.444;2023-12-04T09:06:12;100664.44;;;6.47;54.29
48614;BME280;34408;51.426;5.444;2023-12-04T09:08:41;100662.22;;;6.58;54.32
48614;BME280;34408;51.426;5.444;2023-12-04T09:11:20;100656.66;;;6.52;54.29
48614;BME280;34408;51.426;5.444;2023-12-04T09:13:51;100645.69;;;6.34;54.48
48614;BME280;34408;51.426;5.444;2023-12-04T09:16:19;100654.88;;;6.18;54.71
48614;BME280;34408;51.426;5.444;2023-12-04T09:18:47;100642.88;;;6.01;53.89
48614;BME280;34408;51.426;5.444;2023-12-04T09:21:15;100648.88;;;5.82;54.35
48614;BME280;34408;51.426;5.444;2023-12-04T09:23:43;100640.22;;;5.73;55.32
48614;BME280;34408;51.426;5.444;2023-12-04T09:26:16;100637.50;;;5.67;55.77
48614;BME280;34408;51.426;5.444;2023-12-04T09:28:44;100627.63;;;5.61;56.16
48614;BME280;34408;51.426;5.444;2023-12-04T09:31:14;100634.97;;;5.59;56.36
48614;BME280;34408;51.426;5.444;2023-12-04T09:33:42;100633.91;;;5.53;56.62
48614;BME280;34408;51.426;5.444;2023-12-04T09:36:10;100648.44;;;5.50;56.70
48614;BME280;34408;51.426;5.444;2023-12-04T09:38:38;100641.03;;;5.46;57.07
48614;BME280;34408;51.426;5.444;2023-12-04T09:41:08;100646.75;;;5.43;57.13
48614;BME280;34408;51.426;5.444;2023-12-04T09:43:36;100644.28;;;5.41;57.21
48614;BME280;34408;51.426;5.444;2023-12-04T09:46:05;100643.84;;;5.38;57.21
48614;BME280;34408;51.426;5.444;2023-12-04T09:48:37;100641.38;;;5.36;57.42
48614;BME280;34408;51.426;5.444;2023-12-04T09:51:07;100641.56;;;5.35;57.39
48614;BME280;34408;51.426;5.444;2023-12-04T09:53:36;100636.63;;;5.32;57.67
48614;BME280;34408;51.426;5.444;2023-12-04T09:56:04;100638.47;;;5.31;57.64
48614;BME280;34408;51.426;5.444;2023-12-04T09:58:39;100636.81;;;5.30;57.58
48614;BME280;34408;51.426;5.444;2023-12-04T10:01:08;100633.13;;;5.31;57.87
48614;BME280;34408;51.426;5.444;2023-12-04T10:03:38;100630.38;;;5.46;57.36
48614;BME280;34408;51.426;5.444;2023-12-04T10:06:08;100635.41;;;5.62;56.82
48614;BME280;34408;51.426;5.444;2023-12-04T10:08:36;100616.06;;;5.81;56.48
48614;BME280;34408;51.426;5.444;2023-12-04T10:11:03;100616.78;;;5.97;55.97
48614;BME280;34408;51.426;5.444;2023-12-04T10:13:32;100618.31;;;6.12;55.43
48614;BME280;34408;51.426;5.444;2023-12-04T10:16:36;100601.72;;;6.24;55.22
48614;BME280;34408;51.426;5.444;2023-12-04T10:19:16;100608.13;;;6.36;54.73
48614;BME280;34408;51.426;5.444;2023-12-04T10:21:45;100605.44;;;6.29;54.72
48614;BME280;34408;51.426;5.444;2023-12-04T10:24:27;100590.41;;;6.15;55.00
48614;BME280;34408;51.426;5.444;2023-12-04T10:26:56;100585.03;;;6.08;55.99
48614;BME280;34408;51.426;5.444;2023-12-04T10:29:27;100585.59;;;5.97;55.65
48614;BME280;34408;51.426;5.444;2023-12-04T10:31:55;100581.44;;;5.88;56.33
48614;BME280;34408;51.426;5.444;2023-12-04T10:34:25;100572.75;;;5.79;56.61
48614;BME280;34408;51.426;5.444;2023-12-04T10:36:53;100574.38;;;5.74;56.48
48614;BME280;34408;51.426;5.444;2023-12-04T10:39:21;100560.19;;;5.67;57.15
48614;BME280;34408;51.426;5.444;2023-12-04T10:41:59;100567.56;;;5.65;57.06
48614;BME280;34408;51.426;5.444;2023-12-04T10:44:28;100549.69;;;5.59;57.04
48614;BME280;34408;51.426;5.444;2023-12-04T10:46:59;100552.75;;;5.55;57.32
48614;BME280;34408;51.426;5.444;2023-12-04T10:49:29;100554.78;;;5.53;57.34
48614;BME280;34408;51.426;5.444;2023-12-04T10:51:58;100543.50;;;5.51;57.68
48614;BME280;34408;51.426;5.444;2023-12-04T10:54:27;100540.38;;;5.48;57.65
48614;BME280;34408;51.426;5.444;2023-12-04T10:57:00;100532.59;;;5.46;57.58
48614;BME280;34408;51.426;5.444;2023-12-04T10:59:36;100530.94;;;5.45;57.79
48614;BME280;34408;51.426;5.444;2023-12-04T11:02:06;100526.00;;;5.42;58.01
48614;BME280;34408;51.426;5.444;2023-12-04T11:04:38;100523.34;;;5.42;58.20
48614;BME280;34408;51.426;5.444;2023-12-04T11:07:07;100518.47;;;5.52;57.64
48614;BME280;34408;51.426;5.444;2023-12-04T11:09:37;100521.44;;;5.71;57.37
48614;BME280;34408;51.426;5.444;2023-12-04T11:12:08;100515.41;;;5.90;56.91
48614;BME280;34408;51.426;5.444;2023-12-04T11:14:42;100509.94;;;6.11;56.17
48614;BME280;34408;51.426;5.444;2023-12-04T11:17:13;100516.34;;;6.30;55.63
48614;BME280;34408;51.426;5.444;2023-12-04T11:19:49;100511.44;;;6.47;55.33
48614;BME280;34408;51.426;5.444;2023-12-04T11:22:18;100504.91;;;6.63;54.71
48614;BME280;34408;51.426;5.444;2023-12-04T11:24:48;100503.47;;;6.80;54.09
48614;BME280;34408;51.426;5.444;2023-12-04T11:27:16;100504.50;;;6.92;54.02
48614;BME280;34408;51.426;5.444;2023-12-04T11:29:46;100490.69;;;6.95;54.20
48614;BME280;34408;51.426;5.444;2023-12-04T11:32:14;100481.06;;;6.88;54.50
48614;BME280;34408;51.426;5.444;2023-12-04T11:34:51;100484.78;;;6.73;54.37
48614;BME280;34408;51.426;5.444;2023-12-04T11:37:22;100473.69;;;6.57;55.01
48614;BME280;34408;51.426;5.444;2023-12-04T11:39:51;100471.19;;;6.42;55.81
48614;BME280;34408;51.426;5.444;2023-12-04T11:42:19;100458.03;;;6.27;55.83
48614;BME280;34408;51.426;5.444;2023-12-04T11:44:48;100449.63;;;6.17;56.43
48614;BME280;34408;51.426;5.444;2023-12-04T11:47:16;100452.28;;;6.10;56.62
48614;BME280;34408;51.426;5.444;2023-12-04T11:49:44;100455.31;;;6.01;57.03
48614;BME280;34408;51.426;5.444;2023-12-04T11:52:14;100449.56;;;5.97;57.39
48614;BME280;34408;51.426;5.444;2023-12-04T11:54:57;100454.88;;;5.91;57.61
48614;BME280;34408;51.426;5.444;2023-12-04T11:57:27;100451.56;;;5.88;57.56
48614;BME280;34408;51.426;5.444;2023-12-04T12:00:10;100436.56;;;5.81;58.10
48614;BME280;34408;51.426;5.444;2023-12-04T12:02:47;100440.47;;;5.78;58.10
48614;BME280;34408;51.426;5.444;2023-12-04T12:05:35;100425.06;;;5.74;58.42
48614;BME280;34408;51.426;5.444;2023-12-04T12:08:08;100412.94;;;5.71;58.33
48614;BME280;34408;51.426;5.444;2023-12-04T12:10:37;100409.66;;;5.69;58.30
48614;BME280;34408;51.426;5.444;2023-12-04T12:13:05;100401.06;;;5.67;58.46
48614;BME280;34408;51.426;5.444;2023-12-04T12:15:33;100393.88;;;5.68;58.68
48614;BME280;34408;51.426;5.444;2023-12-04T12:18:01;100384.03;;;5.68;58.56
48614;BME280;34408;51.426;5.444;2023-12-04T12:20:31;100380.78;;;5.86;58.36
48614;BME280;34408;51.426;5.444;2023-12-04T12:22:59;100377.97;;;6.01;57.95
48614;BME280;34408;51.426;5.444;2023-12-04T12:25:28;100368.13;;;6.14;57.13
48614;BME280;34408;51.426;5.444;2023-12-04T12:27:56;100370.41;;;6.37;56.49
48614;BME280;34408;51.426;5.444;2023-12-04T12:30:24;100362.78;;;6.54;56.08
48614;BME280;34408;51.426;5.444;2023-12-04T12:32:52;100370.38;;;6.70;55.88
48614;BME280;34408;51.426;5.444;2023-12-04T12:35:20;100367.25;;;6.87;55.24
48614;BME280;34408;51.426;5.444;2023-12-04T12:37:48;100359.59;;;6.97;55.43
48614;BME280;34408;51.426;5.444;2023-12-04T12:40:17;100346.22;;;6.97;54.72
48614;BME280;34408;51.426;5.444;2023-12-04T12:42:46;100351.63;;;6.90;55.04
48614;BME280;34408;51.426;5.444;2023-12-04T12:45:15;100346.94;;;6.72;55.65
48614;BME280;34408;51.426;5.444;2023-12-04T12:47:43;100353.53;;;6.57;55.95
48614;BME280;34408;51.426;5.444;2023-12-04T12:50:11;100350.88;;;6.43;56.87
48614;BME280;34408;51.426;5.444;2023-12-04T12:52:42;100342.69;;;6.32;56.59
48614;BME280;34408;51.426;5.444;2023-12-04T12:55:10;100337.75;;;6.22;56.88
48614;BME280;34408;51.426;5.444;2023-12-04T12:57:38;100331.59;;;6.15;57.58
48614;BME280;34408;51.426;5.444;2023-12-04T13:00:10;100335.09;;;6.09;57.46
48614;BME280;34408;51.426;5.444;2023-12-04T13:02:38;100332.22;;;6.04;58.00
48614;BME280;34408;51.426;5.444;2023-12-04T13:05:06;100323.19;;;5.98;58.18
48614;BME280;34408;51.426;5.444;2023-12-04T13:07:35;100318.88;;;5.97;58.46
48614;BME280;34408;51.426;5.444;2023-12-04T13:10:04;100319.50;;;6.12;57.65